sensor_id;sensor_type;location;lat;lon;timestamp;pressure;altitude;pressure_sealevel;temperature;humidity
5053;BME280;2545;50.892;5.740;2022-11-13T00:00:42;56292.50;;;-142.21;100.00
5053;BME280;2545;50.892;5.740;2022-11-13T00:03:07;56267.00;;;-142.21;100.00
5053;BME280;2545;50.892;5.740;2022-11-13T00:05:32;56327.78;;;-142.21;100.00
5053;BME280;2545;50.892;5.740;2022-11-13T00:07:58;56259.16;;;-142.21;100.00
5053;BME280;2545;50.892;5.740;2022-11-13T00:10:23;56265.03;;;-142.21;100.00
5053;BME280;2545;50.892;5.740;2022-11-13T00:12:48;56284.66;;;-142.21;100.00
5053;BME280;2545;50.892;5.740;2022-11-13T00:15:14;56288.56;;;-142.21;100.00
5053;BME280;2545;50.892;5.740;2022-11-13T00:17:39;56310.13;;;-142.21;100.00
5053;BME280;2545;50.892;5.740;2022-11-13T00:20:05;56312.09;;;-142.21;100.00
5053;BME280;2545;50.892;5.740;2022-11-13T00:22:30;56294.47;;;-142.21;100.00
5053;BME280;2545;50.892;5.740;2022-11-13T00:24:55;56276.81;;;-142.21;100.00
5053;BME280;2545;50.892;5.740;2022-11-13T00:27:21;56284.66;;;-142.21;100.00
5053;BME280;2545;50.892;5.740;2022-11-13T00:29:46;56257.19;;;-142.21;100.00
5053;BME280;2545;50.892;5.740;2022-11-13T00:32:11;56272.88;;;-142.21;100.00
5053;BME280;2545;50.892;5.740;2022-11-13T00:34:37;56316.03;;;-142.21;100.00
5053;BME280;2545;50.892;5.740;2022-11-13T00:37:02;56296.41;;;-142.21;100.00
5053;BME280;2545;50.892;5.740;2022-11-13T00:39:27;56316.03;;;-142.21;100.00
5053;BME280;2545;50.892;5.740;2022-11-13T00:41:54;56314.06;;;-142.21;100.00
5053;BME280;2545;50.892;5.740;2022-11-13T00:44:19;56286.63;;;-142.21;100.00
5053;BME280;2545;50.892;5.740;2022-11-13T00:46:44;56294.47;;;-142.21;100.00
5053;BME280;2545;50.892;5.740;2022-11-13T00:49:09;56298.38;;;-142.21;100.00
5053;BME280;2545;50.892;5.740;2022-11-13T00:51:35;56306.22;;;-142.21;100.00
5053;BME280;2545;50.892;5.740;2022-11-13T00:54:00;56280.72;;;-142.21;100.00
5053;BME280;2545;50.892;5.740;2022-11-13T00:56:26;56296.41;;;-142.21;100.00
5053;BME280;2545;50.892;5.740;2022-11-13T00:58:51;56312.09;;;-142.21;100.00
5053;BME280;2545;50.892;5.740;2022-11-13T01:01:18;56286.63;;;-142.21;100.00
5053;BME280;2545;50.892;5.740;2022-11-13T01:03:44;56294.47;;;-142.21;100.00
5053;BME280;2545;50.892;5.740;2022-11-13T01:06:27;56292.50;;;-142.21;100.00
5053;BME280;2545;50.892;5.740;2022-11-13T01:08:57;56304.25;;;-142.21;100.00
5053;BME280;2545;50.892;5.740;2022-11-13T01:11:27;56319.94;;;-142.21;100.00
5053;BME280;2545;50.892;5.740;2022-11-13T01:13:53;56274.84;;;-142.21;100.00
5053;BME280;2545;50.892;5.740;2022-11-13T01:16:21;56243.47;;;-142.21;100.00
5053;BME280;2545;50.892;5.740;2022-11-13T01:18:47;56280.72;;;-142.21;100.00
5053;BME280;2545;50.892;5.740;2022-11-13T01:21:18;56286.63;;;-142.21;100.00
5053;BME280;2545;50.892;5.740;2022-11-13T01:23:44;56284.66;;;-142.21;100.00
5053;BME280;2545;50.892;5.740;2022-11-13T01:26:19;56272.88;;;-142.21;100.00
5053;BME280;2545;50.892;5.740;2022-11-13T01:28:45;56290.53;;;-142.21;100.00
5053;BME280;2545;50.892;5.740;2022-11-13T01:31:15;56300.34;;;-142.21;100.00
5053;BME280;2545;50.892;5.740;2022-11-13T01:33:42;56270.91;;;-142.21;100.00
5053;BME280;2545;50.892;5.740;2022-11-13T01:36:10;56312.09;;;-142.21;100.00
5053;BME280;2545;50.892;5.740;2022-11-13T01:38:36;56288.56;;;-142.21;100.00
5053;BME280;2545;50.892;5.740;2022-11-13T01:41:02;56292.50;;;-142.21;100.00
5053;BME280;2545;50.892;5.740;2022-11-13T01:43:33;56296.41;;;-142.21;100.00
5053;BME280;2545;50.892;5.740;2022-11-13T01:48:45;56294.47;;;-142.21;100.00
5053;BME280;2545;50.892;5.740;2022-11-13T01:51:17;56263.06;;;-142.21;100.00
5053;BME280;2545;50.892;5.740;2022-11-13T01:53:44;56290.53;;;-142.21;100.00
5053;BME280;2545;50.892;5.740;2022-11-13T01:56:11;56304.25;;;-142.21;100.00
5053;BME280;2545;50.892;5.740;2022-11-13T01:58:37;56282.69;;;-142.21;100.00
5053;BME280;2545;50.892;5.740;2022-11-13T02:01:03;56253.28;;;-142.21;100.00
5053;BME280;2545;50.892;5.740;2022-11-13T02:03:29;56288.56;;;-142.21;100.00
5053;BME280;2545;50.892;5.740;2022-11-13T02:05:55;56267.00;;;-142.21;100.00
5053;BME280;2545;50.892;5.740;2022-11-13T02:08:20;56292.50;;;-142.21;100.00
5053;BME280;2545;50.892;5.740;2022-11-13T02:10:45;56282.69;;;-142.21;100.00
5053;BME280;2545;50.892;5.740;2022-11-13T02:13:12;56259.16;;;-142.21;100.00
5053;BME280;2545;50.892;5.740;2022-11-13T02:15:38;56278.78;;;-142.21;100.00
5053;BME280;2545;50.892;5.740;2022-11-13T02:18:04;56276.81;;;-142.21;100.00
5053;BME280;2545;50.892;5.740;2022-11-13T02:20:36;56282.69;;;-142.21;100.00
5053;BME280;2545;50.892;5.740;2022-11-13T02:23:13;56265.03;;;-142.21;100.00
5053;BME280;2545;50.892;5.740;2022-11-13T02:25:42;56292.50;;;-142.21;100.00
5053;BME280;2545;50.892;5.740;2022-11-13T02:28:08;56267.00;;;-142.21;100.00
5053;BME280;2545;50.892;5.740;2022-11-13T02:30:35;56282.69;;;-142.21;100.00
5053;BME280;2545;50.892;5.740;2022-11-13T02:33:01;56286.63;;;-142.21;100.00
5053;BME280;2545;50.892;5.740;2022-11-13T02:35:29;56292.50;;;-142.21;100.00
5053;BME280;2545;50.892;5.740;2022-11-13T02:37:56;56284.66;;;-142.21;100.00
5053;BME280;2545;50.892;5.740;2022-11-13T02:40:22;56274.84;;;-142.21;100.00
5053;BME280;2545;50.892;5.740;2022-11-13T02:42:47;56337.59;;;-142.21;100.00
5053;BME280;2545;50.892;5.740;2022-11-13T02:45:13;56298.38;;;-142.21;100.00
5053;BME280;2545;50.892;5.740;2022-11-13T02:47:38;56327.78;;;-142.21;100.00
5053;BME280;2545;50.892;5.740;2022-11-13T02:50:04;56280.72;;;-142.21;100.00
5053;BME280;2545;50.892;5.740;2022-11-13T02:52:30;56274.84;;;-142.21;100.00
5053;BME280;2545;50.892;5.740;2022-11-13T02:54:55;56259.16;;;-142.21;100.00
5053;BME280;2545;50.892;5.740;2022-11-13T02:57:21;56280.72;;;-142.21;100.00
5053;BME280;2545;50.892;5.740;2022-11-13T02:59:46;56290.53;;;-142.21;100.00
5053;BME280;2545;50.892;5.740;2022-11-13T03:02:12;56268.97;;;-142.21;100.00
5053;BME280;2545;50.892;5.740;2022-11-13T03:04:37;56276.81;;;-142.21;100.00
5053;BME280;2545;50.892;5.740;2022-11-13T03:07:02;56263.06;;;-142.21;100.00
5053;BME280;2545;50.892;5.740;2022-11-13T03:09:28;56298.38;;;-142.21;100.00
5053;BME280;2545;50.892;5.740;2022-11-13T03:11:53;56290.53;;;-142.21;100.00
5053;BME280;2545;50.892;5.740;2022-11-13T03:14:18;56294.47;;;-142.21;100.00
5053;BME280;2545;50.892;5.740;2022-11-13T03:16:44;56268.97;;;-142.21;100.00
5053;BME280;2545;50.892;5.740;2022-11-13T03:19:09;56276.81;;;-142.21;100.00
5053;BME280;2545;50.892;5.740;2022-11-13T03:21:34;56265.03;;;-142.21;100.00
5053;BME280;2545;50.892;5.740;2022-11-13T03:24:00;56241.50;;;-142.21;100.00
5053;BME280;2545;50.892;5.740;2022-11-13T03:26:25;56312.09;;;-142.21;100.00
5053;BME280;2545;50.892;5.740;2022-11-13T03:28:53;56278.78;;;-142.21;100.00
5053;BME280;2545;50.892;5.740;2022-11-13T03:31:19;56312.09;;;-142.21;100.00
5053;BME280;2545;50.892;5.740;2022-11-13T03:33:44;56261.13;;;-142.21;100.00
5053;BME280;2545;50.892;5.740;2022-11-13T03:36:10;56268.97;;;-142.21;100.00
5053;BME280;2545;50.892;5.740;2022-11-13T03:38:36;56278.78;;;-142.21;100.00
5053;BME280;2545;50.892;5.740;2022-11-13T03:41:02;56251.31;;;-142.21;100.00
5053;BME280;2545;50.892;5.740;2022-11-13T03:43:27;56284.66;;;-142.21;100.00
5053;BME280;2545;50.892;5.740;2022-11-13T03:45:53;56263.06;;;-142.21;100.00
5053;BME280;2545;50.892;5.740;2022-11-13T03:48:18;56312.09;;;-142.21;100.00
5053;BME280;2545;50.892;5.740;2022-11-13T03:50:46;56296.41;;;-142.21;100.00
5053;BME280;2545;50.892;5.740;2022-11-13T03:53:13;56270.91;;;-142.21;100.00
5053;BME280;2545;50.892;5.740;2022-11-13T03:55:39;56286.63;;;-142.21;100.00
5053;BME280;2545;50.892;5.740;2022-11-13T03:58:04;56267.00;;;-142.21;100.00
5053;BME280;2545;50.892;5.740;2022-11-13T04:00:30;56270.91;;;-142.21;100.00
5053;BME280;2545;50.892;5.740;2022-11-13T04:02:55;56306.22;;;-142.21;100.00
5053;BME280;2545;50.892;5.740;2022-11-13T04:05:21;56247.38;;;-142.21;100.00
5053;BME280;2545;50.892;5.740;2022-11-13T04:07:47;56237.59;;;-142.21;100.00
5053;BME280;2545;50.892;5.740;2022-11-13T04:10:13;56296.41;;;-142.21;100.00
5053;BME280;2545;50.892;5.740;2022-11-13T04:12:38;56265.03;;;-142.21;100.00
5053;BME280;2545;50.892;5.740;2022-11-13T04:15:04;56270.91;;;-142.21;100.00
5053;BME280;2545;50.892;5.740;2022-11-13T04:17:30;56288.56;;;-142.21;100.00
5053;BME280;2545;50.892;5.740;2022-11-13T04:19:55;56263.06;;;-142.21;100.00
5053;BME280;2545;50.892;5.740;2022-11-13T04:22:20;56292.50;;;-142.21;100.00
5053;BME280;2545;50.892;5.740;2022-11-13T04:24:46;56290.53;;;-142.21;100.00
5053;BME280;2545;50.892;5.740;2022-11-13T04:27:11;56274.84;;;-142.21;100.00
5053;BME280;2545;50.892;5.740;2022-11-13T04:29:36;56284.66;;;-142.21;100.00
5053;BME280;2545;50.892;5.740;2022-11-13T04:32:02;56286.63;;;-142.21;100.00
5053;BME280;2545;50.892;5.740;2022-11-13T04:34:27;56286.63;;;-142.21;100.00
5053;BME280;2545;50.892;5.740;2022-11-13T04:36:52;56270.91;;;-142.21;100.00
5053;BME280;2545;50.892;5.740;2022-11-13T04:39:17;56245.44;;;-142.21;100.00
5053;BME280;2545;50.892;5.740;2022-11-13T04:41:43;56296.41;;;-142.21;100.00
5053;BME280;2545;50.892;5.740;2022-11-13T04:44:27;56337.59;;;-142.21;100.00
5053;BME280;2545;50.892;5.740;2022-11-13T04:46:52;56280.72;;;-142.21;100.00
5053;BME280;2545;50.892;5.740;2022-11-13T04:49:17;56270.91;;;-142.21;100.00
5053;BME280;2545;50.892;5.740;2022-11-13T04:51:42;56274.84;;;-142.21;100.00
5053;BME280;2545;50.892;5.740;2022-11-13T04:54:08;56274.84;;;-142.21;100.00
5053;BME280;2545;50.892;5.740;2022-11-13T04:56:33;56308.19;;;-142.21;100.00
5053;BME280;2545;50.892;5.740;2022-11-13T04:58:59;56292.50;;;-142.21;100.00
5053;BME280;2545;50.892;5.740;2022-11-13T05:01:24;56286.63;;;-142.21;100.00
5053;BME280;2545;50.892;5.740;2022-11-13T05:03:49;56274.84;;;-142.21;100.00
5053;BME280;2545;50.892;5.740;2022-11-13T05:06:15;56292.50;;;-142.21;100.00
5053;BME280;2545;50.892;5.740;2022-11-13T05:08:40;56294.47;;;-142.21;100.00
5053;BME280;2545;50.892;5.740;2022-11-13T05:11:05;56296.41;;;-142.21;100.00
5053;BME280;2545;50.892;5.740;2022-11-13T05:13:34;56243.47;;;-142.21;100.00
5053;BME280;2545;50.892;5.740;2022-11-13T05:16:05;56288.56;;;-142.21;100.00
5053;BME280;2545;50.892;5.740;2022-11-13T05:18:33;56268.97;;;-142.21;100.00
5053;BME280;2545;50.892;5.740;2022-11-13T05:21:00;56282.69;;;-142.21;100.00
5053;BME280;2545;50.892;5.740;2022-11-13T05:23:26;56282.69;;;-142.21;100.00
5053;BME280;2545;50.892;5.740;2022-11-13T05:25:52;56302.28;;;-142.21;100.00
5053;BME280;2545;50.892;5.740;2022-11-13T05:28:17;56274.84;;;-142.21;100.00
5053;BME280;2545;50.892;5.740;2022-11-13T05:30:43;56302.28;;;-142.21;100.00
5053;BME280;2545;50.892;5.740;2022-11-13T05:33:08;56249.34;;;-142.21;100.00
5053;BME280;2545;50.892;5.740;2022-11-13T05:35:33;56243.47;;;-142.21;100.00
5053;BME280;2545;50.892;5.740;2022-11-13T05:37:59;56286.63;;;-142.21;100.00
5053;BME280;2545;50.892;5.740;2022-11-13T05:40:25;56296.41;;;-142.21;100.00
5053;BME280;2545;50.892;5.740;2022-11-13T05:42:52;56268.97;;;-142.21;100.00
5053;BME280;2545;50.892;5.740;2022-11-13T05:45:17;56282.69;;;-142.21;100.00
5053;BME280;2545;50.892;5.740;2022-11-13T05:47:42;56300.34;;;-142.21;100.00
5053;BME280;2545;50.892;5.740;2022-11-13T05:50:08;56259.16;;;-142.21;100.00
5053;BME280;2545;50.892;5.740;2022-11-13T05:52:33;56261.13;;;-142.21;100.00
5053;BME280;2545;50.892;5.740;2022-11-13T05:54:59;56255.22;;;-142.21;100.00
5053;BME280;2545;50.892;5.740;2022-11-13T05:57:24;56278.78;;;-142.21;100.00
5053;BME280;2545;50.892;5.740;2022-11-13T05:59:49;56292.50;;;-142.21;100.00
5053;BME280;2545;50.892;5.740;2022-11-13T06:02:15;56249.34;;;-142.21;100.00
5053;BME280;2545;50.892;5.740;2022-11-13T06:04:40;56319.94;;;-142.21;100.00
5053;BME280;2545;50.892;5.740;2022-11-13T06:07:05;56270.91;;;-142.21;100.00
5053;BME280;2545;50.892;5.740;2022-11-13T06:09:30;56280.72;;;-142.21;100.00
5053;BME280;2545;50.892;5.740;2022-11-13T06:11:56;56268.97;;;-142.21;100.00
5053;BME280;2545;50.892;5.740;2022-11-13T06:14:21;56272.88;;;-142.21;100.00
5053;BME280;2545;50.892;5.740;2022-11-13T06:16:46;56282.69;;;-142.21;100.00
5053;BME280;2545;50.892;5.740;2022-11-13T06:19:12;56235.63;;;-142.21;100.00
5053;BME280;2545;50.892;5.740;2022-11-13T06:21:38;56270.91;;;-142.21;100.00
5053;BME280;2545;50.892;5.740;2022-11-13T06:24:05;56312.09;;;-142.21;100.00
5053;BME280;2545;50.892;5.740;2022-11-13T06:26:35;56300.34;;;-142.21;100.00
5053;BME280;2545;50.892;5.740;2022-11-13T06:29:01;56290.53;;;-142.21;100.00
5053;BME280;2545;50.892;5.740;2022-11-13T06:31:29;56251.31;;;-142.21;100.00
5053;BME280;2545;50.892;5.740;2022-11-13T06:33:56;56292.50;;;-142.21;100.00
5053;BME280;2545;50.892;5.740;2022-11-13T06:36:28;56290.53;;;-142.21;100.00
5053;BME280;2545;50.892;5.740;2022-11-13T06:38:53;56294.47;;;-142.21;100.00
5053;BME280;2545;50.892;5.740;2022-11-13T06:41:25;56265.03;;;-142.21;100.00
5053;BME280;2545;50.892;5.740;2022-11-13T06:43:51;56286.63;;;-142.21;100.00
5053;BME280;2545;50.892;5.740;2022-11-13T06:46:19;56296.41;;;-142.21;100.00
5053;BME280;2545;50.892;5.740;2022-11-13T06:48:45;56282.69;;;-142.21;100.00
5053;BME280;2545;50.892;5.740;2022-11-13T06:51:23;56267.00;;;-142.21;100.00
5053;BME280;2545;50.892;5.740;2022-11-13T06:53:50;56255.22;;;-142.21;100.00
5053;BME280;2545;50.892;5.740;2022-11-13T06:56:16;56272.88;;;-142.21;100.00
5053;BME280;2545;50.892;5.740;2022-11-13T06:58:41;56337.59;;;-142.21;100.00
5053;BME280;2545;50.892;5.740;2022-11-13T07:01:16;56259.16;;;-142.21;100.00
5053;BME280;2545;50.892;5.740;2022-11-13T07:03:43;56276.81;;;-142.21;100.00
5053;BME280;2545;50.892;5.740;2022-11-13T07:06:21;56280.72;;;-142.21;100.00
5053;BME280;2545;50.892;5.740;2022-11-13T07:08:47;56282.69;;;-142.21;100.00
5053;BME280;2545;50.892;5.740;2022-11-13T07:11:15;56282.69;;;-142.21;100.00
5053;BME280;2545;50.892;5.740;2022-11-13T07:13:41;56276.81;;;-142.21;100.00
5053;BME280;2545;50.892;5.740;2022-11-13T07:16:08;56282.69;;;-142.21;100.00
5053;BME280;2545;50.892;5.740;2022-11-13T07:18:34;56231.72;;;-142.21;100.00
5053;BME280;2545;50.892;5.740;2022-11-13T07:21:04;56270.91;;;-142.21;100.00
5053;BME280;2545;50.892;5.740;2022-11-13T07:23:30;56261.13;;;-142.21;100.00
5053;BME280;2545;50.892;5.740;2022-11-13T07:25:56;56272.88;;;-142.21;100.00
5053;BME280;2545;50.892;5.740;2022-11-13T07:28:21;56272.88;;;-142.21;100.00
5053;BME280;2545;50.892;5.740;2022-11-13T07:30:46;56296.41;;;-142.21;100.00
5053;BME280;2545;50.892;5.740;2022-11-13T07:33:12;56290.53;;;-142.21;100.00
5053;BME280;2545;50.892;5.740;2022-11-13T07:35:37;56263.06;;;-142.21;100.00
5053;BME280;2545;50.892;5.740;2022-11-13T07:38:03;56257.19;;;-142.21;100.00
5053;BME280;2545;50.892;5.740;2022-11-13T07:40:28;56280.72;;;-142.21;100.00
5053;BME280;2545;50.892;5.740;2022-11-13T07:43:00;56321.91;;;-142.21;100.00
5053;BME280;2545;50.892;5.740;2022-11-13T07:45:27;56302.28;;;-142.21;100.00
5053;BME280;2545;50.892;5.740;2022-11-13T07:48:00;56290.53;;;-142.21;100.00
5053;BME280;2545;50.892;5.740;2022-11-13T07:50:27;56233.66;;;-142.21;100.00
5053;BME280;2545;50.892;5.740;2022-11-13T07:53:01;56245.44;;;-142.21;100.00
5053;BME280;2545;50.892;5.740;2022-11-13T07:55:27;56270.91;;;-142.21;100.00
5053;BME280;2545;50.892;5.740;2022-11-13T07:57:56;56312.09;;;-142.21;100.00
5053;BME280;2545;50.892;5.740;2022-11-13T08:00:23;56321.91;;;-142.21;100.00
5053;BME280;2545;50.892;5.740;2022-11-13T08:02:49;56284.66;;;-142.21;100.00
5053;BME280;2545;50.892;5.740;2022-11-13T08:05:14;56270.91;;;-142.21;100.00
5053;BME280;2545;50.892;5.740;2022-11-13T08:07:40;56270.91;;;-142.21;100.00
5053;BME280;2545;50.892;5.740;2022-11-13T08:10:05;56268.97;;;-142.21;100.00
5053;BME280;2545;50.892;5.740;2022-11-13T08:12:31;56288.56;;;-142.21;100.00
5053;BME280;2545;50.892;5.740;2022-11-13T08:14:56;56270.91;;;-142.21;100.00
5053;BME280;2545;50.892;5.740;2022-11-13T08:17:21;56251.31;;;-142.21;100.00
5053;BME280;2545;50.892;5.740;2022-11-13T08:19:47;56288.56;;;-142.21;100.00
5053;BME280;2545;50.892;5.740;2022-11-13T08:22:12;56292.50;;;-142.21;100.00
5053;BME280;2545;50.892;5.740;2022-11-13T08:24:37;56265.03;;;-142.21;100.00
5053;BME280;2545;50.892;5.740;2022-11-13T08:27:03;56296.41;;;-142.21;100.00
5053;BME280;2545;50.892;5.740;2022-11-13T08:29:30;56282.69;;;-142.21;100.00
5053;BME280;2545;50.892;5.740;2022-11-13T08:31:55;56280.72;;;-142.21;100.00
5053;BME280;2545;50.892;5.740;2022-11-13T08:34:20;56316.03;;;-142.21;100.00
5053;BME280;2545;50.892;5.740;2022-11-13T08:36:46;56265.03;;;-142.21;100.00
5053;BME280;2545;50.892;5.740;2022-11-13T08:39:12;56296.41;;;-142.21;100.00
5053;BME280;2545;50.892;5.740;2022-11-13T08:41:37;56290.53;;;-142.21;100.00
5053;BME280;2545;50.892;5.740;2022-11-13T08:44:02;56292.50;;;-142.21;100.00
5053;BME280;2545;50.892;5.740;2022-11-13T08:46:28;56312.09;;;-142.21;100.00
5053;BME280;2545;50.892;5.740;2022-11-13T08:48:53;56259.16;;;-142.21;100.00
5053;BME280;2545;50.892;5.740;2022-11-13T08:51:18;56300.34;;;-142.21;100.00
5053;BME280;2545;50.892;5.740;2022-11-13T08:53:44;56276.81;;;-142.21;100.00
5053;BME280;2545;50.892;5.740;2022-11-13T08:56:10;56300.34;;;-142.21;100.00
5053;BME280;2545;50.892;5.740;2022-11-13T08:58:35;56286.63;;;-142.21;100.00
5053;BME280;2545;50.892;5.740;2022-11-13T09:01:01;56263.06;;;-142.21;100.00
5053;BME280;2545;50.892;5.740;2022-11-13T09:03:27;56302.28;;;-142.21;100.00
5053;BME280;2545;50.892;5.740;2022-11-13T09:05:53;56304.25;;;-142.21;100.00
5053;BME280;2545;50.892;5.740;2022-11-13T09:08:18;56282.69;;;-142.21;100.00
5053;BME280;2545;50.892;5.740;2022-11-13T09:10:43;56294.47;;;-142.21;100.00
5053;BME280;2545;50.892;5.740;2022-11-13T09:13:09;56288.56;;;-142.21;100.00
5053;BME280;2545;50.892;5.740;2022-11-13T09:15:36;56247.38;;;-142.21;100.00
5053;BME280;2545;50.892;5.740;2022-11-13T09:18:02;56286.63;;;-142.21;100.00
5053;BME280;2545;50.892;5.740;2022-11-13T09:20:29;56298.38;;;-142.21;100.00
5053;BME280;2545;50.892;5.740;2022-11-13T09:23:05;56290.53;;;-142.21;100.00
5053;BME280;2545;50.892;5.740;2022-11-13T09:25:33;56235.63;;;-142.21;100.00
5053;BME280;2545;50.892;5.740;2022-11-13T09:28:00;56245.44;;;-142.21;100.00
5053;BME280;2545;50.892;5.740;2022-11-13T09:30:28;56290.53;;;-142.21;100.00
5053;BME280;2545;50.892;5.740;2022-11-13T09:32:58;56263.06;;;-142.21;100.00
5053;BME280;2545;50.892;5.740;2022-11-13T09:35:25;56298.38;;;-142.21;100.00
5053;BME280;2545;50.892;5.740;2022-11-13T09:38:19;56241.50;;;-142.21;100.00
5053;BME280;2545;50.892;5.740;2022-11-13T09:40:49;56335.63;;;-142.21;100.00
5053;BME280;2545;50.892;5.740;2022-11-13T09:43:32;56253.28;;;-142.21;100.00
5053;BME280;2545;50.892;5.740;2022-11-13T09:46:03;56316.03;;;-142.21;100.00
5053;BME280;2545;50.892;5.740;2022-11-13T09:48:34;56259.16;;;-142.21;100.00
5053;BME280;2545;50.892;5.740;2022-11-13T09:51:05;56231.72;;;-142.21;100.00
5053;BME280;2545;50.892;5.740;2022-11-13T09:53:36;56276.81;;;-142.21;100.00
5053;BME280;2545;50.892;5.740;2022-11-13T09:56:13;56280.72;;;-142.21;100.00
5053;BME280;2545;50.892;5.740;2022-11-13T09:58:48;56288.56;;;-142.21;100.00
5053;BME280;2545;50.892;5.740;2022-11-13T10:01:43;56302.28;;;-142.21;100.00
5053;BME280;2545;50.892;5.740;2022-11-13T10:04:13;56294.47;;;-142.21;100.00
5053;BME280;2545;50.892;5.740;2022-11-13T10:07:02;56312.09;;;-142.21;100.00
5053;BME280;2545;50.892;5.740;2022-11-13T10:09:59;56276.81;;;-142.21;100.00
5053;BME280;2545;50.892;5.740;2022-11-13T10:12:21;56241.50;;;-142.21;100.00
5053;BME280;2545;50.892;5.740;2022-11-13T10:14:50;56268.97;;;-142.21;100.00
5053;BME280;2545;50.892;5.740;2022-11-13T10:17:36;56286.63;;;-142.21;100.00
5053;BME280;2545;50.892;5.740;2022-11-13T10:20:15;56255.22;;;-142.21;100.00
5053;BME280;2545;50.892;5.740;2022-11-13T10:22:54;56272.88;;;-142.21;100.00
5053;BME280;2545;50.892;5.740;2022-11-13T10:25:23;56261.13;;;-142.21;100.00
5053;BME280;2545;50.892;5.740;2022-11-13T10:28:00;56253.28;;;-142.21;100.00
5053;BME280;2545;50.892;5.740;2022-11-13T10:30:26;56292.50;;;-142.21;100.00
5053;BME280;2545;50.892;5.740;2022-11-13T10:32:52;56304.25;;;-142.21;100.00
5053;BME280;2545;50.892;5.740;2022-11-13T10:38:07;56300.34;;;-142.21;100.00
5053;BME280;2545;50.892;5.740;2022-11-13T10:40:38;56272.88;;;-142.21;99.72
5053;BME280;2545;50.892;5.740;2022-11-13T10:45:31;56249.34;;;-142.21;90.24
5053;BME280;2545;50.892;5.740;2022-11-13T10:47:56;56216.00;;;-142.21;81.82
5053;BME280;2545;50.892;5.740;2022-11-13T10:50:24;56274.84;;;-142.21;75.46
5053;BME280;2545;50.892;5.740;2022-11-13T10:52:53;56263.06;;;-142.21;70.39
5053;BME280;2545;50.892;5.740;2022-11-13T10:58:03;56257.19;;;-142.21;59.22
5053;BME280;2545;50.892;5.740;2022-11-13T11:00:36;56198.38;;;-142.21;55.81
5053;BME280;2545;50.892;5.740;2022-11-13T11:03:07;56184.66;;;-142.21;51.66
5053;BME280;2545;50.892;5.740;2022-11-13T11:05:33;56180.72;;;-142.21;49.29
5053;BME280;2545;50.892;5.740;2022-11-13T11:07:59;56174.84;;;-142.21;49.15
5053;BME280;2545;50.892;5.740;2022-11-13T11:10:30;56231.72;;;-142.21;47.87
5053;BME280;2545;50.892;5.740;2022-11-13T11:13:04;56176.78;;;-142.21;46.75
5053;BME280;2545;50.892;5.740;2022-11-13T11:15:44;56157.19;;;-142.21;48.21
5053;BME280;2545;50.892;5.740;2022-11-13T11:18:25;56151.31;;;-142.21;51.07
5053;BME280;2545;50.892;5.740;2022-11-13T11:20:55;56176.78;;;-142.21;55.47
5053;BME280;2545;50.892;5.740;2022-11-13T11:23:32;56208.16;;;-142.21;59.61
5053;BME280;2545;50.892;5.740;2022-11-13T11:26:04;56180.72;;;-142.21;63.92
5053;BME280;2545;50.892;5.740;2022-11-13T11:28:40;56212.09;;;-142.21;66.96
5053;BME280;2545;50.892;5.740;2022-11-13T11:31:28;56186.59;;;-142.21;69.38
5053;BME280;2545;50.892;5.740;2022-11-13T11:33:56;56210.13;;;-142.21;70.91
5053;BME280;2545;50.892;5.740;2022-11-13T11:36:51;56188.56;;;-142.21;72.71
5053;BME280;2545;50.892;5.740;2022-11-13T11:42:05;56196.41;;;-142.21;73.15
5053;BME280;2545;50.892;5.740;2022-11-13T11:44:51;56198.38;;;-142.21;74.49
5053;BME280;2545;50.892;5.740;2022-11-13T11:47:19;56237.59;;;-142.21;73.78
5053;BME280;2545;50.892;5.740;2022-11-13T11:49:45;56202.28;;;-142.21;74.00
5053;BME280;2545;50.892;5.740;2022-11-13T11:52:24;56219.94;;;-142.21;74.60
5053;BME280;2545;50.892;5.740;2022-11-13T11:55:01;56225.81;;;-142.21;74.85
5053;BME280;2545;50.892;5.740;2022-11-13T12:00:05;56210.13;;;-142.21;74.98
5053;BME280;2545;50.892;5.740;2022-11-13T12:13:45;56163.06;;;-142.21;56.38
5053;BME280;2545;50.892;5.740;2022-11-13T12:24:57;56125.81;;;-142.21;39.69
5053;BME280;2545;50.892;5.740;2022-11-13T12:27:37;56145.44;;;-142.21;37.30
5053;BME280;2545;50.892;5.740;2022-11-13T12:30:12;56123.84;;;-142.21;37.03
5053;BME280;2545;50.892;5.740;2022-11-13T12:35:24;56051.31;;;-142.21;35.56
5053;BME280;2545;50.892;5.740;2022-11-13T12:43:33;56000.31;;;-142.21;32.80
5053;BME280;2545;50.892;5.740;2022-11-13T12:46:09;56037.56;;;-142.21;33.39
5053;BME280;2545;50.892;5.740;2022-11-13T12:48:41;56035.63;;;-142.21;32.44
5053;BME280;2545;50.892;5.740;2022-11-13T12:51:09;56008.16;;;-142.21;31.83
5053;BME280;2545;50.892;5.740;2022-11-13T12:53:52;56019.94;;;-142.21;29.68
5053;BME280;2545;50.892;5.740;2022-11-13T13:01:25;55955.22;;;-142.21;27.97
5053;BME280;2545;50.892;5.740;2022-11-13T13:15:00;55894.44;;;-142.21;26.23
5053;BME280;2545;50.892;5.740;2022-11-13T13:17:29;55912.09;;;-142.21;26.55
5053;BME280;2545;50.892;5.740;2022-11-13T13:20:04;55916.00;;;-142.21;26.03
5053;BME280;2545;50.892;5.740;2022-11-13T13:22:34;55912.09;;;-142.21;25.81
5053;BME280;2545;50.892;5.740;2022-11-13T13:25:05;55908.16;;;-142.21;25.84
5053;BME280;2545;50.892;5.740;2022-11-13T13:27:36;55919.94;;;-142.21;25.44
5053;BME280;2545;50.892;5.740;2022-11-13T13:30:17;55919.94;;;-142.21;25.47
5053;BME280;2545;50.892;5.740;2022-11-13T13:33:07;55904.25;;;-142.21;25.70
5053;BME280;2545;50.892;5.740;2022-11-13T13:38:24;55868.94;;;-142.21;25.79
5053;BME280;2545;50.892;5.740;2022-11-13T13:46:19;55959.16;;;-142.21;25.91
5053;BME280;2545;50.892;5.740;2022-11-13T13:48:48;55953.25;;;-142.21;25.62
5053;BME280;2545;50.892;5.740;2022-11-13T13:53:44;55900.31;;;-142.21;26.05
5053;BME280;2545;50.892;5.740;2022-11-13T13:56:11;55923.84;;;-142.21;25.46
5053;BME280;2545;50.892;5.740;2022-11-13T13:58:38;55939.53;;;-142.21;25.72
5053;BME280;2545;50.892;5.740;2022-11-13T14:01:10;55943.47;;;-142.21;25.42
5053;BME280;2545;50.892;5.740;2022-11-13T14:03:36;55900.31;;;-142.21;25.97
5053;BME280;2545;50.892;5.740;2022-11-13T14:06:18;55927.78;;;-142.21;26.46
5053;BME280;2545;50.892;5.740;2022-11-13T14:08:44;55953.25;;;-142.21;26.32